createdAt,value
2018-08-20T00:00:45.189Z,100427.47
2018-08-20T00:03:13.857Z,100425.27
2018-08-20T00:05:47.325Z,100422.80
2018-08-20T00:08:15.762Z,100420.80
2018-08-20T00:10:44.189Z,100423.81
2018-08-20T00:13:12.626Z,100426.81
2018-08-20T00:15:41.061Z,100427.55
2018-08-20T00:18:12.333Z,100428.66
2018-08-20T00:20:40.764Z,100429.84
2018-08-20T00:23:09.164Z,100436.09
2018-08-20T00:25:37.869Z,100432.18
2018-08-20T00:28:06.285Z,100434.88
2018-08-20T00:30:34.770Z,100427.52
2018-08-20T00:33:03.186Z,100428.38
2018-08-20T00:35:31.609Z,100423.45
2018-08-20T00:38:00.021Z,100427.98
2018-08-20T00:40:33.203Z,100430.59
2018-08-20T00:43:01.650Z,100426.02
2018-08-20T00:45:30.105Z,100435.23
2018-08-20T00:47:58.511Z,100439.37
2018-08-20T00:50:26.908Z,100440.68
2018-08-20T00:52:55.389Z,100440.59
2018-08-20T00:55:23.844Z,100443.84
2018-08-20T00:57:52.298Z,100444.67
2018-08-20T01:00:20.767Z,100445.78
2018-08-20T01:02:49.205Z,100440.22
2018-08-20T01:05:17.665Z,100443.22
2018-08-20T01:07:46.105Z,100439.33
2018-08-20T01:10:14.569Z,100436.84
2018-08-20T01:12:43.013Z,100436.84
2018-08-20T01:15:11.539Z,100427.70
2018-08-20T01:17:39.968Z,100435.96
2018-08-20T01:20:08.514Z,100423.25
2018-08-20T01:22:37.015Z,100426.16
2018-08-20T01:25:05.521Z,100415.64
2018-08-20T01:27:33.986Z,100418.62
2018-08-20T01:30:02.476Z,100416.07
2018-08-20T01:32:30.967Z,100413.16
2018-08-20T01:35:14.779Z,100411.86
2018-08-20T01:37:43.317Z,100410.25
2018-08-20T01:40:11.733Z,100414.43
2018-08-20T01:42:40.235Z,100404.90
2018-08-20T01:45:08.689Z,100404.95
2018-08-20T01:47:37.153Z,100415.73
2018-08-20T01:50:05.733Z,100414.08
2018-08-20T01:52:34.224Z,100419.04
2018-08-20T01:55:02.713Z,100416.41
2018-08-20T01:57:31.187Z,100419.44
2018-08-20T01:59:59.649Z,100415.80
2018-08-20T02:02:28.133Z,100401.66
2018-08-20T02:04:56.654Z,100408.97
2018-08-20T02:07:25.113Z,100411.85
2018-08-20T02:09:53.612Z,100413.17
2018-08-20T02:12:22.072Z,100406.66
2018-08-20T02:14:50.509Z,100410.57
2018-08-20T02:17:19.084Z,100410.63
2018-08-20T02:19:47.520Z,100414.44
2018-08-20T02:22:16.014Z,100406.78
2018-08-20T02:24:44.460Z,100407.66
2018-08-20T02:27:12.941Z,100411.49
2018-08-20T02:29:41.501Z,100408.92
2018-08-20T02:32:10.001Z,100412.67
2018-08-20T02:34:38.427Z,100405.62
2018-08-20T02:37:07.116Z,100399.34
2018-08-20T02:39:35.614Z,100405.41
2018-08-20T02:42:06.210Z,100402.54
2018-08-20T02:44:34.658Z,100391.41
2018-08-20T02:47:03.199Z,100393.09
2018-08-20T02:49:31.664Z,100390.02
2018-08-20T02:52:00.119Z,100387.00
2018-08-20T02:54:28.613Z,100387.27
2018-08-20T02:56:57.076Z,100377.52
2018-08-20T02:59:26.333Z,100377.86
2018-08-20T03:01:54.731Z,100381.38
2018-08-20T03:04:23.178Z,100378.95
2018-08-20T03:06:51.570Z,100377.30
2018-08-20T03:09:19.969Z,100375.11
2018-08-20T03:11:48.403Z,100375.25
2018-08-20T03:14:16.832Z,100371.67
2018-08-20T03:16:45.240Z,100382.38
2018-08-20T03:19:13.634Z,100379.62
2018-08-20T03:21:42.037Z,100376.75
2018-08-20T03:24:10.570Z,100375.36
2018-08-20T03:26:39.002Z,100371.17
2018-08-20T03:29:07.432Z,100379.23
2018-08-20T03:31:35.858Z,100382.63
2018-08-20T03:34:04.322Z,100368.86
2018-08-20T03:36:32.944Z,100371.84
2018-08-20T03:39:02.005Z,100380.13
2018-08-20T03:41:30.397Z,100381.83
2018-08-20T03:43:58.861Z,100389.77
2018-08-20T03:46:27.368Z,100390.65
2018-08-20T03:48:55.762Z,100393.05
2018-08-20T03:51:24.281Z,100388.77
2018-08-20T03:53:52.905Z,100388.03
2018-08-20T03:56:21.598Z,100405.11
2018-08-20T03:58:50.585Z,100404.11
2018-08-20T04:01:19.162Z,100404.34
2018-08-20T04:03:47.809Z,100406.33
2018-08-20T04:06:16.501Z,100411.92
2018-08-20T04:09:48.715Z,100414.95
2018-08-20T04:12:17.357Z,100419.19
2018-08-20T04:14:45.944Z,100420.57
2018-08-20T04:17:14.757Z,100422.48
2018-08-20T04:19:43.391Z,100429.87
2018-08-20T04:22:12.060Z,100429.87
2018-08-20T04:24:56.922Z,100431.53
2018-08-20T04:27:25.601Z,100428.00
2018-08-20T04:29:54.257Z,100428.42
2018-08-20T04:32:23.005Z,100431.00
2018-08-20T04:34:51.658Z,100432.14
2018-08-20T04:37:20.274Z,100428.02
2018-08-20T04:39:48.903Z,100429.63
2018-08-20T04:42:17.787Z,100439.66
2018-08-20T04:44:46.457Z,100440.53
2018-08-20T04:47:15.025Z,100441.55
2018-08-20T04:49:43.657Z,100444.56
2018-08-20T04:52:12.099Z,100434.06
2018-08-20T04:54:40.505Z,100428.66
2018-08-20T04:57:08.973Z,100433.66
2018-08-20T04:59:37.369Z,100426.77
2018-08-20T05:02:06.034Z,100428.15
2018-08-20T05:04:34.463Z,100429.63
2018-08-20T05:07:02.946Z,100429.39
2018-08-20T05:09:31.478Z,100436.77
2018-08-20T05:11:59.998Z,100435.48
2018-08-20T05:14:28.425Z,100435.48
2018-08-20T05:16:56.947Z,100439.76
2018-08-20T05:19:25.385Z,100442.96
2018-08-20T05:21:53.841Z,100448.05
2018-08-20T05:24:22.335Z,100448.88
2018-08-20T05:26:50.765Z,100444.96
2018-08-20T05:29:19.740Z,100453.14
2018-08-20T05:31:48.174Z,100451.79
2018-08-20T05:34:16.656Z,100453.94
2018-08-20T05:36:45.126Z,100448.30
2018-08-20T05:39:13.557Z,100447.80
2018-08-20T05:41:41.975Z,100441.31
2018-08-20T05:44:10.397Z,100446.23
2018-08-20T05:46:38.839Z,100440.04
2018-08-20T05:49:07.305Z,100440.65
2018-08-20T05:51:35.765Z,100441.38
2018-08-20T05:54:04.343Z,100446.39
2018-08-20T05:56:32.800Z,100448.39
2018-08-20T05:59:01.253Z,100450.87
2018-08-20T06:01:30.021Z,100450.34
2018-08-20T06:03:58.515Z,100456.67
2018-08-20T06:06:27.041Z,100446.03
2018-08-20T06:08:55.470Z,100448.79
2018-08-20T06:11:23.925Z,100452.16
2018-08-20T06:13:52.405Z,100461.75
2018-08-20T06:16:23.869Z,100463.83
2018-08-20T06:18:52.359Z,100467.64
2018-08-20T06:21:20.842Z,100475.13
2018-08-20T06:23:49.326Z,100467.42
2018-08-20T06:26:17.804Z,100472.23
2018-08-20T06:28:46.286Z,100473.09
2018-08-20T06:31:14.707Z,100479.60
2018-08-20T06:33:43.194Z,100477.14
2018-08-20T06:36:11.750Z,100472.89
2018-08-20T06:38:40.248Z,100477.80
2018-08-20T06:41:08.840Z,100472.72
2018-08-20T06:43:37.280Z,100479.12
2018-08-20T06:46:05.857Z,100488.00
2018-08-20T06:48:34.404Z,100490.11
2018-08-20T06:51:02.898Z,100492.58
2018-08-20T06:53:31.390Z,100493.36
2018-08-20T06:55:59.877Z,100492.69
2018-08-20T06:58:28.490Z,100500.19
2018-08-20T07:00:57.051Z,100501.50
2018-08-20T07:03:25.521Z,100501.46
2018-08-20T07:05:53.955Z,100509.39
2018-08-20T07:08:22.463Z,100504.74
2018-08-20T07:10:50.939Z,100507.28
2018-08-20T07:13:27.449Z,100517.57
2018-08-20T07:15:55.887Z,100516.22
2018-08-20T07:18:24.373Z,100512.44
2018-08-20T07:20:52.837Z,100520.56
2018-08-20T07:23:21.437Z,100519.19
2018-08-20T07:25:49.926Z,100519.05
2018-08-20T07:28:18.385Z,100519.81
2018-08-20T07:30:46.963Z,100522.59
2018-08-20T07:33:15.507Z,100523.19
2018-08-20T07:35:43.969Z,100530.76
2018-08-20T07:40:39.886Z,100533.97
2018-08-20T07:43:08.459Z,100531.70
2018-08-20T07:45:36.935Z,100530.35
2018-08-20T07:48:05.433Z,100534.88
2018-08-20T07:50:33.943Z,100534.21
2018-08-20T07:53:02.393Z,100531.15
2018-08-20T07:55:30.906Z,100537.80
2018-08-20T07:57:59.328Z,100529.98
2018-08-20T08:00:27.740Z,100527.92
2018-08-20T08:02:56.204Z,100533.38
2018-08-20T08:05:24.609Z,100534.96
2018-08-20T08:07:53.054Z,100537.98
2018-08-20T08:10:21.489Z,100527.90
2018-08-20T08:12:49.887Z,100539.33
2018-08-20T08:15:18.342Z,100537.95
2018-08-20T08:17:46.980Z,100537.14
2018-08-20T08:20:16.016Z,100542.00
2018-08-20T08:22:44.738Z,100541.59
2018-08-20T08:25:13.196Z,100541.94
2018-08-20T08:27:41.626Z,100535.44
2018-08-20T08:30:16.817Z,100533.22
2018-08-20T08:32:45.442Z,100540.12
2018-08-20T08:35:14.523Z,100534.69
2018-08-20T08:37:43.052Z,100542.27
2018-08-20T08:40:13.270Z,100541.73
2018-08-20T08:42:41.733Z,100539.42
2018-08-20T08:45:17.068Z,100548.70
2018-08-20T08:47:46.025Z,100539.76
2018-08-20T08:50:15.801Z,100543.98
2018-08-20T08:52:44.506Z,100533.09
2018-08-20T08:55:12.986Z,100539.20
2018-08-20T08:57:41.407Z,100543.83
2018-08-20T09:00:18.684Z,100539.61
2018-08-20T09:02:47.341Z,100532.86
2018-08-20T09:05:15.885Z,100532.98
2018-08-20T09:07:44.465Z,100536.70
2018-08-20T09:10:13.410Z,100535.24
2018-08-20T09:12:53.164Z,100540.85
2018-08-20T09:15:21.770Z,100541.31
2018-08-20T09:17:50.193Z,100543.23
2018-08-20T09:20:18.729Z,100547.54
2018-08-20T09:22:47.160Z,100544.18
2018-08-20T09:25:16.157Z,100542.20
2018-08-20T09:27:45.626Z,100542.88
2018-08-20T09:30:16.666Z,100552.48
2018-08-20T09:32:46.121Z,100551.44
2018-08-20T09:35:14.571Z,100549.16
2018-08-20T09:37:43.643Z,100549.56
2018-08-20T09:40:12.613Z,100545.41
2018-08-20T09:42:41.685Z,100545.41
2018-08-20T09:45:10.381Z,100551.98
2018-08-20T09:47:39.731Z,100551.98
2018-08-20T09:50:09.913Z,100549.32
2018-08-20T09:52:38.391Z,100547.12
2018-08-20T09:55:07.673Z,100544.55
2018-08-20T09:57:36.177Z,100550.56
2018-08-20T10:00:07.090Z,100550.48
2018-08-20T10:02:35.581Z,100546.02
2018-08-20T10:05:04.114Z,100552.97
2018-08-20T10:07:32.710Z,100541.64
2018-08-20T10:10:01.580Z,100544.23
2018-08-20T10:12:46.591Z,100550.39
2018-08-20T10:15:15.506Z,100548.19
2018-08-20T10:17:53.169Z,100556.43
2018-08-20T10:26:11.045Z,100545.24
2018-08-20T10:28:49.868Z,100558.37
2018-08-20T10:31:24.494Z,100556.42
2018-08-20T10:33:53.258Z,100556.67
2018-08-20T10:36:21.822Z,100559.45
2018-08-20T10:38:50.213Z,100556.27
2018-08-20T10:41:22.906Z,100559.84
2018-08-20T10:43:51.367Z,100555.69
2018-08-20T10:46:20.149Z,100554.52
2018-08-20T10:48:48.825Z,100556.72
2018-08-20T10:51:17.255Z,100555.51
2018-08-20T10:53:45.689Z,100563.58
2018-08-20T10:56:14.665Z,100564.46
2018-08-20T10:58:43.077Z,100563.18
2018-08-20T11:01:11.485Z,100560.33
2018-08-20T11:03:43.335Z,100564.31
2018-08-20T11:06:11.729Z,100558.59
2018-08-20T11:08:42.224Z,100557.19
2018-08-20T11:11:10.622Z,100564.60
2018-08-20T11:13:39.081Z,100562.65
2018-08-20T11:16:07.526Z,100567.28
2018-08-20T11:18:39.643Z,100568.22
2018-08-20T11:21:08.030Z,100563.88
2018-08-20T11:23:36.478Z,100561.41
2018-08-20T11:26:04.887Z,100561.16
2018-08-20T11:28:33.351Z,100559.03
2018-08-20T11:31:01.797Z,100557.47
2018-08-20T11:33:30.263Z,100554.00
2018-08-20T11:36:03.110Z,100558.39
2018-08-20T11:38:31.575Z,100559.95
2018-08-20T11:40:59.996Z,100559.20
2018-08-20T11:43:28.425Z,100561.70
2018-08-20T11:45:56.804Z,100557.02
2018-08-20T11:48:25.233Z,100552.20
2018-08-20T11:50:53.657Z,100532.67
2018-08-20T11:53:23.097Z,100558.11
2018-08-20T11:55:51.642Z,100553.38
2018-08-20T11:58:20.051Z,100550.70
2018-08-20T12:00:48.466Z,100559.25
2018-08-20T12:03:17.464Z,100561.45
2018-08-20T12:05:46.408Z,100555.25
2018-08-20T12:08:15.414Z,100560.64
2018-08-20T12:10:44.386Z,100562.52
2018-08-20T12:13:13.047Z,100559.03
2018-08-20T12:15:41.477Z,100563.98
2018-08-20T12:18:09.921Z,100560.75
2018-08-20T12:20:38.385Z,100568.76
2018-08-20T12:23:07.783Z,100565.01
2018-08-20T12:25:36.205Z,100558.93
2018-08-20T12:28:04.683Z,100558.49
2018-08-20T12:30:33.141Z,100546.25
2018-08-20T12:33:01.606Z,100557.39
2018-08-20T12:35:30.073Z,100559.56
2018-08-20T12:37:58.477Z,100554.11
2018-08-20T12:40:27.127Z,100552.77
2018-08-20T12:42:56.024Z,100557.04
2018-08-20T12:45:24.476Z,100549.77
2018-08-20T12:47:52.897Z,100549.41
2018-08-20T12:50:23.340Z,100553.55
2018-08-20T12:52:51.815Z,100553.75
2018-08-20T12:55:20.213Z,100555.55
2018-08-20T12:57:49.038Z,100562.44
2018-08-20T13:00:17.948Z,100547.89
2018-08-20T13:14:18.800Z,100552.02
2018-08-20T13:16:47.278Z,100565.13
2018-08-20T13:19:15.709Z,100561.16
2018-08-20T13:21:44.148Z,100564.95
2018-08-20T13:24:12.647Z,100566.09
2018-08-20T13:26:41.117Z,100566.52
2018-08-20T13:29:09.624Z,100557.09
2018-08-20T13:31:40.217Z,100555.62
2018-08-20T13:34:08.679Z,100553.66
2018-08-20T13:36:37.112Z,100559.11
2018-08-20T13:39:07.085Z,100558.02
2018-08-20T13:41:35.679Z,100550.15
2018-08-20T13:44:04.293Z,100549.11
2018-08-20T13:46:32.679Z,100547.08
2018-08-20T13:49:01.120Z,100543.30
2018-08-20T13:51:29.546Z,100544.11
2018-08-20T13:53:57.936Z,100545.17
2018-08-20T13:56:26.385Z,100532.94
2018-08-20T13:58:54.805Z,100543.77
2018-08-20T14:01:23.213Z,100539.33
2018-08-20T14:03:51.623Z,100537.30
2018-08-20T14:06:20.049Z,100540.23
2018-08-20T14:08:48.469Z,100539.50
2018-08-20T14:11:16.880Z,100534.20
2018-08-20T14:13:45.255Z,100525.53
2018-08-20T14:16:13.686Z,100542.28
2018-08-20T14:18:42.130Z,100542.48
2018-08-20T14:21:13.181Z,100539.85
2018-08-20T14:23:43.262Z,100538.73
2018-08-20T14:26:11.747Z,100537.23
2018-08-20T14:28:40.154Z,100532.09
2018-08-20T14:31:08.642Z,100540.53
2018-08-20T14:33:37.065Z,100539.41
2018-08-20T14:36:05.973Z,100536.25
2018-08-20T14:38:34.761Z,100545.67
2018-08-20T14:41:03.282Z,100544.48
2018-08-20T14:43:31.761Z,100536.61
2018-08-20T14:46:06.381Z,100530.59
2018-08-20T14:48:34.868Z,100532.72
2018-08-20T14:51:03.439Z,100532.47
2018-08-20T14:53:31.942Z,100530.03
2018-08-20T14:56:00.376Z,100529.98
2018-08-20T14:58:28.857Z,100527.72
2018-08-20T15:00:57.343Z,100526.38
2018-08-20T15:03:25.902Z,100533.28
2018-08-20T15:05:54.432Z,100527.40
2018-08-20T15:08:22.914Z,100524.70
2018-08-20T15:10:51.476Z,100523.53
2018-08-20T15:13:20.861Z,100522.05
2018-08-20T15:15:49.290Z,100507.69
2018-08-20T15:18:17.710Z,100510.12
2018-08-20T15:20:46.187Z,100513.41
2018-08-20T15:23:14.637Z,100516.72
2018-08-20T15:25:43.077Z,100515.51
2018-08-20T15:28:11.543Z,100508.23
2018-08-20T15:30:40.004Z,100520.52
2018-08-20T15:33:08.590Z,100509.80
2018-08-20T15:35:43.738Z,100517.12
2018-08-20T15:38:12.244Z,100518.05
2018-08-20T15:40:41.713Z,100513.86
2018-08-20T15:43:10.157Z,100517.12
2018-08-20T15:45:38.605Z,100512.70
2018-08-20T15:48:07.402Z,100504.59
2018-08-20T15:50:35.883Z,100502.98
2018-08-20T15:53:07.962Z,100511.76
2018-08-20T15:55:36.319Z,100507.13
2018-08-20T15:58:05.031Z,100510.08
2018-08-20T16:00:34.309Z,100504.20
2018-08-20T16:03:03.873Z,100503.38
2018-08-20T16:05:32.350Z,100505.52
2018-08-20T16:08:00.794Z,100510.75
2018-08-20T16:10:29.386Z,100509.09
2018-08-20T16:12:57.898Z,100513.41
2018-08-20T16:15:26.305Z,100509.66
2018-08-20T16:17:54.710Z,100502.59
2018-08-20T16:20:23.165Z,100502.39
2018-08-20T16:22:51.634Z,100500.91
2018-08-20T16:25:20.073Z,100499.47
2018-08-20T16:27:48.477Z,100498.13
2018-08-20T16:30:16.930Z,100496.12
2018-08-20T16:32:45.386Z,100499.67
2018-08-20T16:35:17.236Z,100502.13
2018-08-20T16:37:45.700Z,100496.96
2018-08-20T16:40:14.186Z,100496.77
2018-08-20T16:42:42.667Z,100491.41
2018-08-20T16:45:11.183Z,100488.37
2018-08-20T16:47:40.021Z,100491.31
2018-08-20T16:50:10.465Z,100489.37
2018-08-20T16:52:38.929Z,100485.91
2018-08-20T16:55:07.954Z,100485.44
2018-08-20T16:57:36.547Z,100490.02
2018-08-20T17:00:06.861Z,100489.59
2018-08-20T17:02:36.108Z,100484.89
2018-08-20T17:05:04.705Z,100485.70
2018-08-20T17:07:33.218Z,100478.97
2018-08-20T17:10:01.664Z,100487.61
2018-08-20T17:12:30.110Z,100489.00
2018-08-20T17:14:59.545Z,100484.72
2018-08-20T17:17:28.009Z,100486.15
2018-08-20T17:19:56.421Z,100491.06
2018-08-20T17:22:24.876Z,100485.59
2018-08-20T17:24:56.676Z,100481.02
2018-08-20T17:27:25.129Z,100488.06
2018-08-20T17:29:55.635Z,100490.05
2018-08-20T17:32:24.134Z,100490.18
2018-08-20T17:34:52.700Z,100498.15
2018-08-20T17:37:21.925Z,100494.05
2018-08-20T17:40:06.285Z,100499.02
2018-08-20T17:42:35.035Z,100502.36
2018-08-20T17:45:03.952Z,100499.00
2018-08-20T17:47:32.814Z,100502.17
2018-08-20T17:50:01.644Z,100501.91
2018-08-20T17:52:34.107Z,100502.52
2018-08-20T17:55:04.056Z,100502.01
2018-08-20T17:57:32.610Z,100504.08
2018-08-20T18:00:42.897Z,100503.52
2018-08-20T18:03:18.881Z,100505.94
2018-08-20T18:05:56.018Z,100509.48
2018-08-20T18:08:25.613Z,100501.13
2018-08-20T18:10:54.197Z,100504.83
2018-08-20T18:13:49.511Z,100500.76
2018-08-20T18:16:19.458Z,100500.55
2018-08-20T18:18:49.311Z,100508.58
2018-08-20T18:21:17.851Z,100510.52
2018-08-20T18:23:46.371Z,100514.81
2018-08-20T18:26:16.029Z,100509.23
2018-08-20T18:28:49.911Z,100517.19
2018-08-20T18:31:25.094Z,100512.07
2018-08-20T18:33:53.681Z,100519.22
2018-08-20T18:36:29.801Z,100522.98
2018-08-20T18:39:01.915Z,100524.46
2018-08-20T18:41:51.884Z,100520.22
2018-08-20T18:44:21.777Z,100531.30
2018-08-20T18:46:50.873Z,100537.89
2018-08-20T18:49:19.576Z,100535.20
2018-08-20T18:52:07.313Z,100541.40
2018-08-20T18:54:40.488Z,100544.98
2018-08-20T18:57:09.566Z,100550.67
2018-08-20T18:59:39.271Z,100542.19
2018-08-20T19:02:09.772Z,100546.37
2018-08-20T19:04:43.456Z,100537.56
2018-08-20T19:07:16.017Z,100547.72
2018-08-20T19:09:48.512Z,100553.92
2018-08-20T19:12:17.039Z,100550.82
2018-08-20T19:14:45.568Z,100554.48
2018-08-20T19:17:27.291Z,100558.41
2018-08-20T19:20:00.298Z,100559.19
2018-08-20T19:22:29.817Z,100563.82
2018-08-20T19:24:58.293Z,100560.57
2018-08-20T19:27:28.943Z,100562.18
2018-08-20T19:29:57.473Z,100568.04
2018-08-20T19:32:26.209Z,100573.38
2018-08-20T19:34:54.675Z,100566.66
2018-08-20T19:37:23.334Z,100567.16
2018-08-20T19:39:51.799Z,100572.75
2018-08-20T19:42:38.725Z,100565.05
2018-08-20T19:45:09.130Z,100575.96
2018-08-20T19:47:37.601Z,100572.14
2018-08-20T19:50:07.515Z,100567.15
2018-08-20T19:52:36.060Z,100564.41
2018-08-20T19:55:08.882Z,100567.86
2018-08-20T19:57:37.527Z,100570.84
2018-08-20T20:00:09.190Z,100575.40
2018-08-20T20:02:37.809Z,100569.88
2018-08-20T20:05:06.963Z,100574.51
2018-08-20T20:07:36.884Z,100572.06
2018-08-20T20:10:13.885Z,100576.75
2018-08-20T20:12:47.712Z,100573.56
2018-08-20T20:15:16.185Z,100568.76
2018-08-20T20:17:44.752Z,100569.09
2018-08-20T20:20:13.197Z,100583.70
2018-08-20T20:22:42.693Z,100582.13
2018-08-20T20:25:11.198Z,100584.98
2018-08-20T20:27:39.678Z,100582.81
2018-08-20T20:30:08.606Z,100583.75
2018-08-20T20:32:37.113Z,100579.20
2018-08-20T20:35:07.173Z,100574.70
2018-08-20T20:37:35.671Z,100578.27
2018-08-20T20:40:04.277Z,100578.81
2018-08-20T20:42:32.777Z,100584.14
2018-08-20T20:45:01.298Z,100584.56
2018-08-20T20:47:29.830Z,100582.55
2018-08-20T20:50:00.434Z,100586.86
2018-08-20T20:52:29.012Z,100593.88
2018-08-20T20:54:57.517Z,100589.11
2018-08-20T20:57:25.948Z,100585.36
2018-08-20T20:59:54.769Z,100590.20
2018-08-20T21:02:23.246Z,100590.36
2018-08-20T21:04:51.723Z,100593.39
2018-08-20T21:07:24.713Z,100590.75
2018-08-20T21:09:53.256Z,100591.19
2018-08-20T21:12:21.874Z,100595.69
2018-08-20T21:14:50.413Z,100593.88
2018-08-20T21:17:18.896Z,100591.19
2018-08-20T21:19:47.447Z,100596.52
2018-08-20T21:22:15.861Z,100598.95
2018-08-20T21:24:44.373Z,100599.57
2018-08-20T21:27:18.899Z,100596.15
2018-08-20T21:29:47.448Z,100597.10
2018-08-20T21:32:15.893Z,100597.89
2018-08-20T21:34:44.424Z,100597.73
2018-08-20T21:37:12.873Z,100595.72
2018-08-20T21:39:41.389Z,100604.72
2018-08-20T21:42:09.868Z,100602.20
2018-08-20T21:44:38.487Z,100600.31
2018-08-20T21:47:25.142Z,100600.88
2018-08-20T21:49:53.582Z,100605.31
2018-08-20T21:52:22.126Z,100603.44
2018-08-20T21:54:50.538Z,100607.83
2018-08-20T21:57:19.090Z,100608.72
2018-08-20T21:59:59.281Z,100608.28
2018-08-20T22:02:32.081Z,100611.24
2018-08-20T22:05:00.533Z,100610.42
2018-08-20T22:07:28.988Z,100609.98
2018-08-20T22:09:57.418Z,100609.10
2018-08-20T22:12:26.133Z,100616.44
2018-08-20T22:14:54.582Z,100616.50
2018-08-20T22:17:28.134Z,100617.33
2018-08-20T22:19:56.698Z,100614.13
2018-08-20T22:22:27.055Z,100618.71
2018-08-20T22:24:58.843Z,100614.06
2018-08-20T22:27:28.003Z,100615.38
2018-08-20T22:30:00.417Z,100615.38
2018-08-20T22:32:30.342Z,100613.67
2018-08-20T22:34:58.945Z,100615.62
2018-08-20T22:37:27.368Z,100617.05
2018-08-20T22:40:01.102Z,100610.30
2018-08-20T22:42:41.893Z,100611.69
2018-08-20T22:45:11.621Z,100613.06
2018-08-20T22:47:40.136Z,100614.51
2018-08-20T22:50:08.581Z,100611.98
2018-08-20T22:52:37.005Z,100619.70
2018-08-20T22:55:07.272Z,100617.66
2018-08-20T22:57:35.695Z,100614.80
2018-08-20T23:00:11.220Z,100616.45
2018-08-20T23:02:39.757Z,100616.51
2018-08-20T23:05:12.357Z,100610.75
2018-08-20T23:07:40.797Z,100614.39
2018-08-20T23:10:09.297Z,100618.22
2018-08-20T23:12:40.792Z,100612.05
2018-08-20T23:15:10.015Z,100616.77
2018-08-20T23:17:38.479Z,100616.63
2018-08-20T23:20:12.434Z,100617.89
2018-08-20T23:22:40.853Z,100617.66
2018-08-20T23:25:09.407Z,100621.20
2018-08-20T23:27:40.861Z,100633.83
2018-08-20T23:30:10.391Z,100621.85
2018-08-20T23:32:38.831Z,100620.32
2018-08-20T23:35:07.321Z,100618.33
2018-08-20T23:37:36.090Z,100611.42
2018-08-20T23:40:05.154Z,100610.05
2018-08-20T23:42:33.582Z,100612.63
2018-08-20T23:45:02.547Z,100615.45
2018-08-20T23:47:30.993Z,100613.69
2018-08-20T23:49:59.519Z,100623.72
2018-08-20T23:52:27.942Z,100616.56
2018-08-20T23:54:56.358Z,100613.17
2018-08-20T23:57:24.775Z,100615.73
2018-08-20T23:59:53.208Z,100622.34
